sensor_id;sensor_type;location;lat;lon;timestamp;P1;P2;P0
80396;PMS5003;69721;55.894;-3.052;2023-06-14T00:01:27;36;34;
80396;PMS5003;69721;55.894;-3.052;2023-06-14T00:03:52;35;32;
80396;PMS5003;69721;55.894;-3.052;2023-06-14T00:06:17;43;37;
80396;PMS5003;69721;55.894;-3.052;2023-06-14T00:08:43;35;33;
80396;PMS5003;69721;55.894;-3.052;2023-06-14T00:11:08;33;29;
80396;PMS5003;69721;55.894;-3.052;2023-06-14T00:13:34;38;35;
80396;PMS5003;69721;55.894;-3.052;2023-06-14T00:16:00;43;35;
80396;PMS5003;69721;55.894;-3.052;2023-06-14T00:18:26;35;33;
80396;PMS5003;69721;55.894;-3.052;2023-06-14T00:20:52;49;37;
80396;PMS5003;69721;55.894;-3.052;2023-06-14T00:23:17;42;33;
80396;PMS5003;69721;55.894;-3.052;2023-06-14T00:25:43;40;35;
80396;PMS5003;69721;55.894;-3.052;2023-06-14T00:28:09;49;44;
80396;PMS5003;69721;55.894;-3.052;2023-06-14T00:30:35;40;35;
80396;PMS5003;69721;55.894;-3.052;2023-06-14T00:33:00;42;36;
80396;PMS5003;69721;55.894;-3.052;2023-06-14T00:35:25;45;40;
80396;PMS5003;69721;55.894;-3.052;2023-06-14T00:37:50;49;42;
80396;PMS5003;69721;55.894;-3.052;2023-06-14T00:40:15;39;32;
80396;PMS5003;69721;55.894;-3.052;2023-06-14T00:42:41;46;43;
80396;PMS5003;69721;55.894;-3.052;2023-06-14T00:45:06;47;43;
80396;PMS5003;69721;55.894;-3.052;2023-06-14T00:47:31;35;33;
80396;PMS5003;69721;55.894;-3.052;2023-06-14T00:49:57;48;42;
80396;PMS5003;69721;55.894;-3.052;2023-06-14T00:52:23;47;43;
80396;PMS5003;69721;55.894;-3.052;2023-06-14T00:54:48;47;39;
80396;PMS5003;69721;55.894;-3.052;2023-06-14T00:57:14;46;43;
80396;PMS5003;69721;55.894;-3.052;2023-06-14T00:59:41;47;39;
80396;PMS5003;69721;55.894;-3.052;2023-06-14T01:02:04;46;39;
80396;PMS5003;69721;55.894;-3.052;2023-06-14T01:04:29;49;44;
80396;PMS5003;69721;55.894;-3.052;2023-06-14T01:06:56;45;39;
80396;PMS5003;69721;55.894;-3.052;2023-06-14T01:09:23;46;37;
80396;PMS5003;69721;55.894;-3.052;2023-06-14T01:11:48;48;43;
80396;PMS5003;69721;55.894;-3.052;2023-06-14T01:14:11;48;39;
80396;PMS5003;69721;55.894;-3.052;2023-06-14T01:16:36;56;44;
80396;PMS5003;69721;55.894;-3.052;2023-06-14T01:19:02;53;44;
80396;PMS5003;69721;55.894;-3.052;2023-06-14T01:21:28;53;44;
80396;PMS5003;69721;55.894;-3.052;2023-06-14T01:23:54;51;42;
80396;PMS5003;69721;55.894;-3.052;2023-06-14T01:26:19;47;41;
80396;PMS5003;69721;55.894;-3.052;2023-06-14T01:28:45;42;39;
80396;PMS5003;69721;55.894;-3.052;2023-06-14T01:31:11;52;42;
80396;PMS5003;69721;55.894;-3.052;2023-06-14T01:33:36;48;40;
80396;PMS5003;69721;55.894;-3.052;2023-06-14T01:36:01;41;36;
80396;PMS5003;69721;55.894;-3.052;2023-06-14T01:38:26;48;37;
80396;PMS5003;69721;55.894;-3.052;2023-06-14T01:40:52;34;34;
80396;PMS5003;69721;55.894;-3.052;2023-06-14T01:43:18;46;43;
80396;PMS5003;69721;55.894;-3.052;2023-06-14T01:45:44;40;34;
80396;PMS5003;69721;55.894;-3.052;2023-06-14T01:48:08;43;35;
80396;PMS5003;69721;55.894;-3.052;2023-06-14T01:50:34;36;35;
80396;PMS5003;69721;55.894;-3.052;2023-06-14T01:52:59;46;34;
80396;PMS5003;69721;55.894;-3.052;2023-06-14T01:55:25;36;33;
80396;PMS5003;69721;55.894;-3.052;2023-06-14T01:57:50;45;37;
80396;PMS5003;69721;55.894;-3.052;2023-06-14T02:00:16;40;38;
80396;PMS5003;69721;55.894;-3.052;2023-06-14T02:02:41;37;32;
80396;PMS5003;69721;55.894;-3.052;2023-06-14T02:05:06;46;39;
80396;PMS5003;69721;55.894;-3.052;2023-06-14T02:07:32;43;37;
80396;PMS5003;69721;55.894;-3.052;2023-06-14T02:09:57;45;36;
80396;PMS5003;69721;55.894;-3.052;2023-06-14T02:12:23;40;33;
80396;PMS5003;69721;55.894;-3.052;2023-06-14T02:14:48;46;41;
80396;PMS5003;69721;55.894;-3.052;2023-06-14T02:17:14;37;35;
80396;PMS5003;69721;55.894;-3.052;2023-06-14T02:19:40;49;42;
80396;PMS5003;69721;55.894;-3.052;2023-06-14T02:22:05;42;35;
80396;PMS5003;69721;55.894;-3.052;2023-06-14T02:24:31;50;42;
80396;PMS5003;69721;55.894;-3.052;2023-06-14T02:26:56;39;37;
80396;PMS5003;69721;55.894;-3.052;2023-06-14T02:29:22;48;39;
80396;PMS5003;69721;55.894;-3.052;2023-06-14T02:31:47;43;39;
80396;PMS5003;69721;55.894;-3.052;2023-06-14T02:34:13;48;39;
80396;PMS5003;69721;55.894;-3.052;2023-06-14T02:36:39;39;36;
80396;PMS5003;69721;55.894;-3.052;2023-06-14T02:39:05;48;42;
80396;PMS5003;69721;55.894;-3.052;2023-06-14T02:41:30;40;33;
80396;PMS5003;69721;55.894;-3.052;2023-06-14T02:43:56;33;30;
80396;PMS5003;69721;55.894;-3.052;2023-06-14T02:46:21;42;41;
80396;PMS5003;69721;55.894;-3.052;2023-06-14T02:48:46;40;38;
80396;PMS5003;69721;55.894;-3.052;2023-06-14T02:51:11;45;36;
80396;PMS5003;69721;55.894;-3.052;2023-06-14T02:53:37;53;43;
80396;PMS5003;69721;55.894;-3.052;2023-06-14T02:56:03;46;42;
80396;PMS5003;69721;55.894;-3.052;2023-06-14T02:58:28;45;39;
80396;PMS5003;69721;55.894;-3.052;2023-06-14T03:00:53;40;37;
80396;PMS5003;69721;55.894;-3.052;2023-06-14T03:03:19;44;36;
80396;PMS5003;69721;55.894;-3.052;2023-06-14T03:05:46;45;40;
80396;PMS5003;69721;55.894;-3.052;2023-06-14T03:08:10;51;41;
80396;PMS5003;69721;55.894;-3.052;2023-06-14T03:10:36;43;35;
80396;PMS5003;69721;55.894;-3.052;2023-06-14T03:13:01;44;40;
80396;PMS5003;69721;55.894;-3.052;2023-06-14T03:15:29;52;45;
80396;PMS5003;69721;55.894;-3.052;2023-06-14T03:17:54;40;36;
80396;PMS5003;69721;55.894;-3.052;2023-06-14T03:20:20;37;34;
80396;PMS5003;69721;55.894;-3.052;2023-06-14T03:22:45;39;36;
80396;PMS5003;69721;55.894;-3.052;2023-06-14T03:25:10;49;39;
80396;PMS5003;69721;55.894;-3.052;2023-06-14T03:27:36;37;35;
80396;PMS5003;69721;55.894;-3.052;2023-06-14T03:30:01;43;37;
80396;PMS5003;69721;55.894;-3.052;2023-06-14T03:32:27;44;40;
80396;PMS5003;69721;55.894;-3.052;2023-06-14T03:34:53;41;39;
80396;PMS5003;69721;55.894;-3.052;2023-06-14T03:37:19;50;39;
80396;PMS5003;69721;55.894;-3.052;2023-06-14T03:39:45;37;32;
80396;PMS5003;69721;55.894;-3.052;2023-06-14T03:42:10;46;45;
80396;PMS5003;69721;55.894;-3.052;2023-06-14T03:44:35;49;43;
80396;PMS5003;69721;55.894;-3.052;2023-06-14T03:47:01;38;33;
80396;PMS5003;69721;55.894;-3.052;2023-06-14T03:49:26;38;30;
80396;PMS5003;69721;55.894;-3.052;2023-06-14T03:51:52;45;38;
80396;PMS5003;69721;55.894;-3.052;2023-06-14T03:54:17;36;33;
80396;PMS5003;69721;55.894;-3.052;2023-06-14T03:56:43;45;39;
80396;PMS5003;69721;55.894;-3.052;2023-06-14T03:59:08;40;33;
80396;PMS5003;69721;55.894;-3.052;2023-06-14T04:01:34;36;31;
80396;PMS5003;69721;55.894;-3.052;2023-06-14T04:03:59;32;29;
80396;PMS5003;69721;55.894;-3.052;2023-06-14T04:06:24;37;31;
80396;PMS5003;69721;55.894;-3.052;2023-06-14T04:08:50;47;40;
80396;PMS5003;69721;55.894;-3.052;2023-06-14T04:11:15;36;34;
80396;PMS5003;69721;55.894;-3.052;2023-06-14T04:13:41;38;32;
80396;PMS5003;69721;55.894;-3.052;2023-06-14T04:16:06;49;40;
80396;PMS5003;69721;55.894;-3.052;2023-06-14T04:18:31;44;35;
80396;PMS5003;69721;55.894;-3.052;2023-06-14T04:20:57;41;31;
80396;PMS5003;69721;55.894;-3.052;2023-06-14T04:23:23;38;32;
80396;PMS5003;69721;55.894;-3.052;2023-06-14T04:25:48;34;33;
80396;PMS5003;69721;55.894;-3.052;2023-06-14T04:28:14;31;28;
80396;PMS5003;69721;55.894;-3.052;2023-06-14T04:30:39;41;35;
80396;PMS5003;69721;55.894;-3.052;2023-06-14T04:33:05;47;41;
80396;PMS5003;69721;55.894;-3.052;2023-06-14T04:35:31;42;38;
80396;PMS5003;69721;55.894;-3.052;2023-06-14T04:37:56;44;35;
80396;PMS5003;69721;55.894;-3.052;2023-06-14T04:40:22;37;31;
80396;PMS5003;69721;55.894;-3.052;2023-06-14T04:42:48;47;39;
80396;PMS5003;69721;55.894;-3.052;2023-06-14T04:45:13;45;36;
80396;PMS5003;69721;55.894;-3.052;2023-06-14T04:47:38;47;37;
80396;PMS5003;69721;55.894;-3.052;2023-06-14T04:50:04;44;42;
80396;PMS5003;69721;55.894;-3.052;2023-06-14T04:52:30;44;36;
80396;PMS5003;69721;55.894;-3.052;2023-06-14T04:54:55;37;32;
80396;PMS5003;69721;55.894;-3.052;2023-06-14T04:57:21;40;37;
80396;PMS5003;69721;55.894;-3.052;2023-06-14T04:59:46;41;37;
80396;PMS5003;69721;55.894;-3.052;2023-06-14T05:02:11;49;44;
80396;PMS5003;69721;55.894;-3.052;2023-06-14T05:04:37;47;36;
80396;PMS5003;69721;55.894;-3.052;2023-06-14T05:07:02;46;35;
80396;PMS5003;69721;55.894;-3.052;2023-06-14T05:09:28;44;37;
80396;PMS5003;69721;55.894;-3.052;2023-06-14T05:11:53;50;44;
80396;PMS5003;69721;55.894;-3.052;2023-06-14T05:14:19;39;37;
80396;PMS5003;69721;55.894;-3.052;2023-06-14T05:16:45;40;36;
80396;PMS5003;69721;55.894;-3.052;2023-06-14T05:19:10;49;41;
80396;PMS5003;69721;55.894;-3.052;2023-06-14T05:21:36;41;37;
80396;PMS5003;69721;55.894;-3.052;2023-06-14T05:24:02;42;37;
80396;PMS5003;69721;55.894;-3.052;2023-06-14T05:26:27;51;40;
80396;PMS5003;69721;55.894;-3.052;2023-06-14T05:28:53;35;34;
80396;PMS5003;69721;55.894;-3.052;2023-06-14T05:31:18;45;39;
80396;PMS5003;69721;55.894;-3.052;2023-06-14T05:33:44;44;39;
80396;PMS5003;69721;55.894;-3.052;2023-06-14T05:36:10;44;41;
80396;PMS5003;69721;55.894;-3.052;2023-06-14T05:38:35;48;43;
80396;PMS5003;69721;55.894;-3.052;2023-06-14T05:41:00;50;38;
80396;PMS5003;69721;55.894;-3.052;2023-06-14T05:43:26;50;36;
80396;PMS5003;69721;55.894;-3.052;2023-06-14T05:45:53;49;42;
80396;PMS5003;69721;55.894;-3.052;2023-06-14T05:48:19;51;39;
80396;PMS5003;69721;55.894;-3.052;2023-06-14T05:50:44;35;30;
80396;PMS5003;69721;55.894;-3.052;2023-06-14T05:53:10;44;40;
80396;PMS5003;69721;55.894;-3.052;2023-06-14T05:55:35;46;41;
80396;PMS5003;69721;55.894;-3.052;2023-06-14T05:58:01;43;39;
80396;PMS5003;69721;55.894;-3.052;2023-06-14T06:00:26;30;28;
80396;PMS5003;69721;55.894;-3.052;2023-06-14T06:02:51;45;38;
80396;PMS5003;69721;55.894;-3.052;2023-06-14T06:05:17;44;36;
80396;PMS5003;69721;55.894;-3.052;2023-06-14T06:07:42;48;40;
80396;PMS5003;69721;55.894;-3.052;2023-06-14T06:10:08;54;39;
80396;PMS5003;69721;55.894;-3.052;2023-06-14T06:12:33;38;38;
80396;PMS5003;69721;55.894;-3.052;2023-06-14T06:14:59;41;38;
80396;PMS5003;69721;55.894;-3.052;2023-06-14T06:17:24;47;44;
80396;PMS5003;69721;55.894;-3.052;2023-06-14T06:19:50;44;37;
80396;PMS5003;69721;55.894;-3.052;2023-06-14T06:22:17;42;42;
80396;PMS5003;69721;55.894;-3.052;2023-06-14T06:24:42;43;37;
80396;PMS5003;69721;55.894;-3.052;2023-06-14T06:27:08;40;38;
80396;PMS5003;69721;55.894;-3.052;2023-06-14T06:29:33;47;38;
80396;PMS5003;69721;55.894;-3.052;2023-06-14T06:31:59;43;39;
80396;PMS5003;69721;55.894;-3.052;2023-06-14T06:34:25;36;36;
80396;PMS5003;69721;55.894;-3.052;2023-06-14T06:36:50;38;36;
80396;PMS5003;69721;55.894;-3.052;2023-06-14T06:39:16;42;35;
80396;PMS5003;69721;55.894;-3.052;2023-06-14T06:41:41;43;37;
80396;PMS5003;69721;55.894;-3.052;2023-06-14T06:44:07;41;37;
80396;PMS5003;69721;55.894;-3.052;2023-06-14T06:46:32;45;40;
80396;PMS5003;69721;55.894;-3.052;2023-06-14T06:48:58;41;37;
80396;PMS5003;69721;55.894;-3.052;2023-06-14T06:51:23;42;39;
80396;PMS5003;69721;55.894;-3.052;2023-06-14T06:53:52;46;38;
80396;PMS5003;69721;55.894;-3.052;2023-06-14T06:56:13;46;40;
80396;PMS5003;69721;55.894;-3.052;2023-06-14T06:58:38;42;40;
80396;PMS5003;69721;55.894;-3.052;2023-06-14T07:01:04;39;37;
80396;PMS5003;69721;55.894;-3.052;2023-06-14T07:03:29;40;39;
80396;PMS5003;69721;55.894;-3.052;2023-06-14T07:05:55;44;41;
80396;PMS5003;69721;55.894;-3.052;2023-06-14T07:08:20;45;42;
80396;PMS5003;69721;55.894;-3.052;2023-06-14T07:10:46;43;40;
80396;PMS5003;69721;55.894;-3.052;2023-06-14T07:13:11;43;37;
80396;PMS5003;69721;55.894;-3.052;2023-06-14T07:15:36;40;38;
80396;PMS5003;69721;55.894;-3.052;2023-06-14T07:18:01;40;36;
80396;PMS5003;69721;55.894;-3.052;2023-06-14T07:20:26;52;44;
80396;PMS5003;69721;55.894;-3.052;2023-06-14T07:22:52;40;36;
80396;PMS5003;69721;55.894;-3.052;2023-06-14T07:25:18;46;40;
80396;PMS5003;69721;55.894;-3.052;2023-06-14T07:27:43;40;36;
80396;PMS5003;69721;55.894;-3.052;2023-06-14T07:30:10;44;41;
80396;PMS5003;69721;55.894;-3.052;2023-06-14T07:32:35;40;37;
80396;PMS5003;69721;55.894;-3.052;2023-06-14T07:35:01;39;33;
80396;PMS5003;69721;55.894;-3.052;2023-06-14T07:37:26;47;36;
80396;PMS5003;69721;55.894;-3.052;2023-06-14T07:39:51;40;35;
80396;PMS5003;69721;55.894;-3.052;2023-06-14T07:42:17;37;32;
80396;PMS5003;69721;55.894;-3.052;2023-06-14T07:44:43;38;35;
80396;PMS5003;69721;55.894;-3.052;2023-06-14T07:47:08;32;32;
80396;PMS5003;69721;55.894;-3.052;2023-06-14T07:49:34;39;36;
80396;PMS5003;69721;55.894;-3.052;2023-06-14T07:51:59;28;26;
80396;PMS5003;69721;55.894;-3.052;2023-06-14T07:54:25;36;33;
80396;PMS5003;69721;55.894;-3.052;2023-06-14T07:56:50;32;30;
80396;PMS5003;69721;55.894;-3.052;2023-06-14T07:59:15;30;29;
80396;PMS5003;69721;55.894;-3.052;2023-06-14T08:01:41;30;28;
80396;PMS5003;69721;55.894;-3.052;2023-06-14T08:04:06;29;28;
80396;PMS5003;69721;55.894;-3.052;2023-06-14T08:06:31;34;30;
80396;PMS5003;69721;55.894;-3.052;2023-06-14T08:08:56;27;25;
80396;PMS5003;69721;55.894;-3.052;2023-06-14T08:11:22;30;28;
80396;PMS5003;69721;55.894;-3.052;2023-06-14T08:13:47;32;27;
80396;PMS5003;69721;55.894;-3.052;2023-06-14T08:16:13;36;33;
80396;PMS5003;69721;55.894;-3.052;2023-06-14T08:18:40;28;24;
80396;PMS5003;69721;55.894;-3.052;2023-06-14T08:21:05;31;28;
80396;PMS5003;69721;55.894;-3.052;2023-06-14T08:23:30;27;26;
80396;PMS5003;69721;55.894;-3.052;2023-06-14T08:25:56;35;33;
80396;PMS5003;69721;55.894;-3.052;2023-06-14T08:28:21;34;33;
80396;PMS5003;69721;55.894;-3.052;2023-06-14T08:30:46;31;27;
80396;PMS5003;69721;55.894;-3.052;2023-06-14T08:33:12;40;36;
80396;PMS5003;69721;55.894;-3.052;2023-06-14T08:35:37;30;30;
80396;PMS5003;69721;55.894;-3.052;2023-06-14T08:38:02;31;30;
80396;PMS5003;69721;55.894;-3.052;2023-06-14T08:40:27;25;24;
80396;PMS5003;69721;55.894;-3.052;2023-06-14T08:42:54;33;31;
80396;PMS5003;69721;55.894;-3.052;2023-06-14T08:45:18;34;30;
80396;PMS5003;69721;55.894;-3.052;2023-06-14T08:47:43;33;31;
80396;PMS5003;69721;55.894;-3.052;2023-06-14T08:50:08;37;33;
80396;PMS5003;69721;55.894;-3.052;2023-06-14T08:52:34;30;28;
80396;PMS5003;69721;55.894;-3.052;2023-06-14T08:54:59;31;27;
80396;PMS5003;69721;55.894;-3.052;2023-06-14T08:57:24;27;25;
80396;PMS5003;69721;55.894;-3.052;2023-06-14T08:59:50;33;33;
80396;PMS5003;69721;55.894;-3.052;2023-06-14T09:02:15;29;29;
80396;PMS5003;69721;55.894;-3.052;2023-06-14T09:04:41;27;27;
80396;PMS5003;69721;55.894;-3.052;2023-06-14T09:07:06;25;22;
80396;PMS5003;69721;55.894;-3.052;2023-06-14T09:09:32;35;31;
80396;PMS5003;69721;55.894;-3.052;2023-06-14T09:11:57;23;22;
80396;PMS5003;69721;55.894;-3.052;2023-06-14T09:14:23;31;29;
80396;PMS5003;69721;55.894;-3.052;2023-06-14T09:16:51;26;25;
80396;PMS5003;69721;55.894;-3.052;2023-06-14T09:19:14;32;29;
80396;PMS5003;69721;55.894;-3.052;2023-06-14T09:21:40;29;27;
80396;PMS5003;69721;55.894;-3.052;2023-06-14T09:24:05;29;27;
80396;PMS5003;69721;55.894;-3.052;2023-06-14T09:26:29;23;22;
80396;PMS5003;69721;55.894;-3.052;2023-06-14T09:28:55;28;25;
80396;PMS5003;69721;55.894;-3.052;2023-06-14T09:31:20;23;23;
80396;PMS5003;69721;55.894;-3.052;2023-06-14T09:33:46;21;20;
80396;PMS5003;69721;55.894;-3.052;2023-06-14T09:36:12;23;22;
80396;PMS5003;69721;55.894;-3.052;2023-06-14T09:38:37;24;24;
80396;PMS5003;69721;55.894;-3.052;2023-06-14T09:41:02;20;19;
80396;PMS5003;69721;55.894;-3.052;2023-06-14T09:43:27;21;18;
80396;PMS5003;69721;55.894;-3.052;2023-06-14T09:45:53;19;19;
80396;PMS5003;69721;55.894;-3.052;2023-06-14T09:48:18;17;17;
80396;PMS5003;69721;55.894;-3.052;2023-06-14T09:50:44;25;22;
80396;PMS5003;69721;55.894;-3.052;2023-06-14T09:53:10;19;19;
80396;PMS5003;69721;55.894;-3.052;2023-06-14T09:55:36;24;23;
80396;PMS5003;69721;55.894;-3.052;2023-06-14T09:58:01;19;19;
80396;PMS5003;69721;55.894;-3.052;2023-06-14T10:00:26;19;19;
80396;PMS5003;69721;55.894;-3.052;2023-06-14T10:02:54;15;15;
80396;PMS5003;69721;55.894;-3.052;2023-06-14T10:05:17;18;15;
80396;PMS5003;69721;55.894;-3.052;2023-06-14T10:07:44;25;20;
80396;PMS5003;69721;55.894;-3.052;2023-06-14T10:10:08;17;17;
80396;PMS5003;69721;55.894;-3.052;2023-06-14T10:12:34;19;17;
80396;PMS5003;69721;55.894;-3.052;2023-06-14T10:14:59;16;16;
80396;PMS5003;69721;55.894;-3.052;2023-06-14T10:17:26;19;15;
80396;PMS5003;69721;55.894;-3.052;2023-06-14T10:19:50;20;17;
80396;PMS5003;69721;55.894;-3.052;2023-06-14T10:22:16;21;18;
80396;PMS5003;69721;55.894;-3.052;2023-06-14T10:24:42;18;16;
80396;PMS5003;69721;55.894;-3.052;2023-06-14T10:27:07;20;18;
80396;PMS5003;69721;55.894;-3.052;2023-06-14T10:29:32;16;16;
80396;PMS5003;69721;55.894;-3.052;2023-06-14T10:31:58;14;14;
80396;PMS5003;69721;55.894;-3.052;2023-06-14T10:34:24;22;17;
80396;PMS5003;69721;55.894;-3.052;2023-06-14T10:39:15;16;16;
80396;PMS5003;69721;55.894;-3.052;2023-06-14T10:41:39;17;17;
80396;PMS5003;69721;55.894;-3.052;2023-06-14T10:46:30;19;19;
80396;PMS5003;69721;55.894;-3.052;2023-06-14T10:48:56;17;17;
80396;PMS5003;69721;55.894;-3.052;2023-06-14T10:51:21;20;18;
80396;PMS5003;69721;55.894;-3.052;2023-06-14T10:53:47;17;17;
80396;PMS5003;69721;55.894;-3.052;2023-06-14T10:58:37;21;21;
80396;PMS5003;69721;55.894;-3.052;2023-06-14T11:01:02;20;20;
80396;PMS5003;69721;55.894;-3.052;2023-06-14T11:03:35;17;16;
80396;PMS5003;69721;55.894;-3.052;2023-06-14T11:05:53;22;20;
80396;PMS5003;69721;55.894;-3.052;2023-06-14T11:08:26;20;19;
80396;PMS5003;69721;55.894;-3.052;2023-06-14T11:10:44;26;24;
80396;PMS5003;69721;55.894;-3.052;2023-06-14T11:13:09;21;19;
80396;PMS5003;69721;55.894;-3.052;2023-06-14T11:15:36;21;19;
80396;PMS5003;69721;55.894;-3.052;2023-06-14T11:18:00;20;20;
80396;PMS5003;69721;55.894;-3.052;2023-06-14T11:20:25;22;20;
80396;PMS5003;69721;55.894;-3.052;2023-06-14T11:22:51;18;16;
80396;PMS5003;69721;55.894;-3.052;2023-06-14T11:25:16;17;15;
80396;PMS5003;69721;55.894;-3.052;2023-06-14T11:27:41;17;16;
80396;PMS5003;69721;55.894;-3.052;2023-06-14T11:30:07;18;17;
80396;PMS5003;69721;55.894;-3.052;2023-06-14T11:32:32;18;17;
80396;PMS5003;69721;55.894;-3.052;2023-06-14T11:34:57;23;18;
80396;PMS5003;69721;55.894;-3.052;2023-06-14T11:37:22;19;18;
80396;PMS5003;69721;55.894;-3.052;2023-06-14T11:39:48;12;12;
80396;PMS5003;69721;55.894;-3.052;2023-06-14T11:42:13;16;14;
80396;PMS5003;69721;55.894;-3.052;2023-06-14T11:44:39;22;18;
80396;PMS5003;69721;55.894;-3.052;2023-06-14T11:47:04;15;15;
80396;PMS5003;69721;55.894;-3.052;2023-06-14T11:49:34;25;22;
80396;PMS5003;69721;55.894;-3.052;2023-06-14T11:51:56;17;17;
80396;PMS5003;69721;55.894;-3.052;2023-06-14T11:54:21;16;16;
80396;PMS5003;69721;55.894;-3.052;2023-06-14T11:56:47;13;13;
80396;PMS5003;69721;55.894;-3.052;2023-06-14T11:59:13;15;13;
80396;PMS5003;69721;55.894;-3.052;2023-06-14T12:01:38;14;12;
80396;PMS5003;69721;55.894;-3.052;2023-06-14T12:04:03;20;17;
80396;PMS5003;69721;55.894;-3.052;2023-06-14T12:06:30;20;17;
80396;PMS5003;69721;55.894;-3.052;2023-06-14T12:08:55;18;17;
80396;PMS5003;69721;55.894;-3.052;2023-06-14T12:11:20;16;13;
80396;PMS5003;69721;55.894;-3.052;2023-06-14T12:13:45;14;13;
80396;PMS5003;69721;55.894;-3.052;2023-06-14T12:16:11;18;14;
80396;PMS5003;69721;55.894;-3.052;2023-06-14T12:18:37;12;12;
80396;PMS5003;69721;55.894;-3.052;2023-06-14T12:21:03;13;12;
80396;PMS5003;69721;55.894;-3.052;2023-06-14T12:23:27;14;14;
80396;PMS5003;69721;55.894;-3.052;2023-06-14T12:25:52;15;15;
80396;PMS5003;69721;55.894;-3.052;2023-06-14T12:28:18;16;16;
80396;PMS5003;69721;55.894;-3.052;2023-06-14T12:30:43;14;14;
80396;PMS5003;69721;55.894;-3.052;2023-06-14T12:33:09;11;11;
80396;PMS5003;69721;55.894;-3.052;2023-06-14T12:35:35;14;12;
80396;PMS5003;69721;55.894;-3.052;2023-06-14T12:38:00;12;12;
80396;PMS5003;69721;55.894;-3.052;2023-06-14T12:40:25;16;14;
80396;PMS5003;69721;55.894;-3.052;2023-06-14T12:42:51;12;12;
80396;PMS5003;69721;55.894;-3.052;2023-06-14T12:45:16;12;12;
80396;PMS5003;69721;55.894;-3.052;2023-06-14T12:47:42;10;9;
80396;PMS5003;69721;55.894;-3.052;2023-06-14T12:50:07;12;11;
80396;PMS5003;69721;55.894;-3.052;2023-06-14T12:52:32;10;10;
80396;PMS5003;69721;55.894;-3.052;2023-06-14T12:54:57;13;12;
80396;PMS5003;69721;55.894;-3.052;2023-06-14T12:57:23;13;11;
80396;PMS5003;69721;55.894;-3.052;2023-06-14T12:59:48;17;16;
80396;PMS5003;69721;55.894;-3.052;2023-06-14T13:02:13;11;11;
80396;PMS5003;69721;55.894;-3.052;2023-06-14T13:04:38;13;13;
80396;PMS5003;69721;55.894;-3.052;2023-06-14T13:07:04;13;12;
80396;PMS5003;69721;55.894;-3.052;2023-06-14T13:09:29;13;11;
80396;PMS5003;69721;55.894;-3.052;2023-06-14T13:11:54;12;12;
80396;PMS5003;69721;55.894;-3.052;2023-06-14T13:14:20;17;15;
80396;PMS5003;69721;55.894;-3.052;2023-06-14T13:16:46;10;10;
80396;PMS5003;69721;55.894;-3.052;2023-06-14T13:19:11;11;11;
80396;PMS5003;69721;55.894;-3.052;2023-06-14T13:21:37;10;10;
80396;PMS5003;69721;55.894;-3.052;2023-06-14T13:24:02;11;9;
80396;PMS5003;69721;55.894;-3.052;2023-06-14T13:26:28;15;15;
80396;PMS5003;69721;55.894;-3.052;2023-06-14T13:28:53;10;10;
80396;PMS5003;69721;55.894;-3.052;2023-06-14T13:31:18;10;10;
80396;PMS5003;69721;55.894;-3.052;2023-06-14T13:33:43;12;11;
80396;PMS5003;69721;55.894;-3.052;2023-06-14T13:36:10;10;10;
80396;PMS5003;69721;55.894;-3.052;2023-06-14T13:38:35;10;10;
80396;PMS5003;69721;55.894;-3.052;2023-06-14T13:41:00;8;8;
80396;PMS5003;69721;55.894;-3.052;2023-06-14T13:43:26;11;9;
80396;PMS5003;69721;55.894;-3.052;2023-06-14T13:45:51;13;10;
80396;PMS5003;69721;55.894;-3.052;2023-06-14T13:48:16;9;9;
80396;PMS5003;69721;55.894;-3.052;2023-06-14T13:50:42;10;10;
80396;PMS5003;69721;55.894;-3.052;2023-06-14T13:53:07;13;13;
80396;PMS5003;69721;55.894;-3.052;2023-06-14T13:55:32;13;11;
80396;PMS5003;69721;55.894;-3.052;2023-06-14T13:57:57;10;9;
80396;PMS5003;69721;55.894;-3.052;2023-06-14T14:00:23;15;15;
80396;PMS5003;69721;55.894;-3.052;2023-06-14T14:02:48;10;10;
80396;PMS5003;69721;55.894;-3.052;2023-06-14T14:05:13;13;7;
80396;PMS5003;69721;55.894;-3.052;2023-06-14T14:07:39;11;9;
80396;PMS5003;69721;55.894;-3.052;2023-06-14T14:10:04;12;10;
80396;PMS5003;69721;55.894;-3.052;2023-06-14T14:12:29;10;9;
80396;PMS5003;69721;55.894;-3.052;2023-06-14T14:14:55;6;6;
80396;PMS5003;69721;55.894;-3.052;2023-06-14T14:17:20;8;8;
80396;PMS5003;69721;55.894;-3.052;2023-06-14T14:19:45;10;10;
80396;PMS5003;69721;55.894;-3.052;2023-06-14T14:22:10;9;9;
80396;PMS5003;69721;55.894;-3.052;2023-06-14T14:24:36;9;7;
80396;PMS5003;69721;55.894;-3.052;2023-06-14T14:27:02;8;8;
80396;PMS5003;69721;55.894;-3.052;2023-06-14T14:29:27;7;6;
80396;PMS5003;69721;55.894;-3.052;2023-06-14T14:31:52;7;7;
80396;PMS5003;69721;55.894;-3.052;2023-06-14T14:34:17;7;7;
80396;PMS5003;69721;55.894;-3.052;2023-06-14T14:36:43;8;8;
80396;PMS5003;69721;55.894;-3.052;2023-06-14T14:39:08;8;8;
80396;PMS5003;69721;55.894;-3.052;2023-06-14T14:41:33;7;7;
80396;PMS5003;69721;55.894;-3.052;2023-06-14T14:43:58;8;8;
80396;PMS5003;69721;55.894;-3.052;2023-06-14T14:46:25;8;6;
80396;PMS5003;69721;55.894;-3.052;2023-06-14T14:48:50;10;7;
80396;PMS5003;69721;55.894;-3.052;2023-06-14T14:51:15;9;9;
80396;PMS5003;69721;55.894;-3.052;2023-06-14T14:53:40;6;6;
80396;PMS5003;69721;55.894;-3.052;2023-06-14T14:56:06;9;8;
80396;PMS5003;69721;55.894;-3.052;2023-06-14T14:58:32;8;8;
80396;PMS5003;69721;55.894;-3.052;2023-06-14T15:00:57;9;7;
80396;PMS5003;69721;55.894;-3.052;2023-06-14T15:03:22;6;5;
80396;PMS5003;69721;55.894;-3.052;2023-06-14T15:05:48;7;6;
80396;PMS5003;69721;55.894;-3.052;2023-06-14T15:08:14;5;5;
80396;PMS5003;69721;55.894;-3.052;2023-06-14T15:10:39;6;6;
80396;PMS5003;69721;55.894;-3.052;2023-06-14T15:13:05;10;10;
80396;PMS5003;69721;55.894;-3.052;2023-06-14T15:15:30;7;7;
80396;PMS5003;69721;55.894;-3.052;2023-06-14T15:17:55;4;4;
80396;PMS5003;69721;55.894;-3.052;2023-06-14T15:20:21;7;5;
80396;PMS5003;69721;55.894;-3.052;2023-06-14T15:22:46;5;4;
80396;PMS5003;69721;55.894;-3.052;2023-06-14T15:25:11;6;6;
80396;PMS5003;69721;55.894;-3.052;2023-06-14T15:27:36;10;9;
80396;PMS5003;69721;55.894;-3.052;2023-06-14T15:30:02;7;7;
80396;PMS5003;69721;55.894;-3.052;2023-06-14T15:32:28;7;5;
80396;PMS5003;69721;55.894;-3.052;2023-06-14T15:34:53;7;5;
80396;PMS5003;69721;55.894;-3.052;2023-06-14T15:37:18;7;6;
80396;PMS5003;69721;55.894;-3.052;2023-06-14T15:39:44;4;4;
80396;PMS5003;69721;55.894;-3.052;2023-06-14T15:42:09;6;6;
80396;PMS5003;69721;55.894;-3.052;2023-06-14T15:44:34;6;6;
80396;PMS5003;69721;55.894;-3.052;2023-06-14T15:47:00;6;6;
80396;PMS5003;69721;55.894;-3.052;2023-06-14T15:49:25;6;5;
80396;PMS5003;69721;55.894;-3.052;2023-06-14T15:51:50;7;6;
80396;PMS5003;69721;55.894;-3.052;2023-06-14T15:54:15;6;5;
80396;PMS5003;69721;55.894;-3.052;2023-06-14T15:56:40;7;7;
80396;PMS5003;69721;55.894;-3.052;2023-06-14T15:59:06;7;6;
80396;PMS5003;69721;55.894;-3.052;2023-06-14T16:01:31;5;5;